Time;durP1;ratioP1;P1;durP2;ratioP2;P2;SDS_P1;SDS_P2;PMS_P1;PMS_P2;Temp;Humidity;BMP_temperature;BMP_pressure;BME280_temperature;BME280_humidity;BME280_pressure;Samples;Min_cycle;Max_cycle;Signal;HPM_P1;HPM_P2
2022/09/25 04:04:32;;;;;;;13.93;8.48;;;;;;;12.19;69.61;98725.38;5096039;27;54257;-68
2022/09/25 04:07:00;;;;;;;12.57;9.98;;;;;;;12.27;70.64;98726.66;5082694;28;20057;-68
2022/09/25 04:09:27;;;;;;;12.43;10.90;;;;;;;12.33;70.70;98727.06;5082753;28;20048;-68
2022/09/25 04:11:55;;;;;;;9.95;8.95;;;;;;;12.40;70.57;98722.16;5082673;28;20068;-70
2022/09/25 04:14:22;;;;;;;10.88;9.15;;;;;;;12.48;70.39;98731.25;5082786;28;20324;-69
2022/09/25 04:16:50;;;;;;;10.23;8.52;;;;;;;12.57;70.64;98728.88;5082549;28;20064;-69
2022/09/25 04:19:18;;;;;;;9.25;8.35;;;;;;;12.63;70.83;98728.44;5082503;28;20056;-70
2022/09/25 04:21:47;;;;;;;10.68;9.48;;;;;;;12.70;70.23;98725.22;5082683;28;20309;-69
2022/09/25 04:26:59;;;;;;;;;;;;;;;12.66;71.07;98733.53;5083178;28;20048;-70
2022/09/25 04:29:26;;;;;;;9.50;8.50;;;;;;;12.55;70.72;98702.41;5082239;28;19916;-69
2022/09/25 04:34:35;;;;;;;10.07;9.00;;;;;;;12.80;70.56;98728.91;5082310;28;20316;-71
2022/09/25 04:37:04;;;;;;;10.10;9.10;;;;;;;12.84;70.47;98741.00;5082026;28;20075;-70
2022/09/25 04:39:31;;;;;;;11.07;8.50;;;;;;;12.86;70.25;98730.25;5081968;28;20335;-70
2022/09/25 04:41:58;;;;;;;10.38;8.30;;;;;;;12.90;70.46;98746.81;5082051;28;20228;-70
2022/09/25 04:44:26;;;;;;;9.20;8.23;;;;;;;12.89;70.37;98745.13;5081929;28;20044;-69
2022/09/25 04:46:53;;;;;;;9.27;7.57;;;;;;;12.90;70.16;98747.69;5081647;28;20075;-70
2022/09/25 04:49:21;;;;;;;9.00;8.10;;;;;;;12.93;70.45;98750.09;5082048;28;20056;-70
2022/09/25 04:51:48;;;;;;;9.38;8.40;;;;;;;12.91;70.25;98752.03;5082015;28;20056;-69
2022/09/25 04:54:17;;;;;;;10.80;7.47;;;;;;;12.93;70.22;98744.78;5081954;28;20063;-70
2022/09/25 04:56:44;;;;;;;10.73;8.38;;;;;;;12.93;70.18;98741.28;5081851;28;20067;-70
2022/09/25 04:59:11;;;;;;;9.88;7.60;;;;;;;12.93;70.38;98738.63;5081738;28;20052;-70
2022/09/25 05:01:39;;;;;;;8.65;7.75;;;;;;;12.93;70.34;98743.94;5081504;28;20064;-69
2022/09/25 05:04:06;;;;;;;10.25;8.68;;;;;;;12.97;70.39;98748.91;5081061;28;20052;-70
2022/09/25 05:06:34;;;;;;;11.60;8.32;;;;;;;12.96;70.08;98741.91;5081570;28;20052;-72
2022/09/25 05:09:02;;;;;;;11.80;9.00;;;;;;;12.97;70.11;98758.72;5081575;28;20060;-70
2022/09/25 05:11:31;;;;;;;9.57;8.52;;;;;;;12.97;70.25;98758.72;5081139;28;20079;-71
2022/09/25 05:13:58;;;;;;;13.23;9.02;;;;;;;12.93;70.27;98757.25;5078683;28;20064;-70
2022/09/25 05:16:27;;;;;;;11.73;10.00;;;;;;;12.92;70.37;98756.38;5068668;28;20053;-70
2022/09/25 05:18:55;;;;;;;9.27;8.32;;;;;;;12.93;70.35;98752.78;5067771;28;20053;-70
2022/09/25 05:21:23;;;;;;;11.23;9.63;;;;;;;12.93;70.47;98754.56;5068313;28;20067;-70
2022/09/25 05:23:50;;;;;;;11.52;9.65;;;;;;;12.96;70.42;98754.34;5068054;28;20057;-70
2022/09/25 05:26:17;;;;;;;11.73;9.30;;;;;;;12.95;70.21;98763.28;5067612;28;20057;-70
2022/09/25 05:28:49;;;;;;;10.27;9.13;;;;;;;12.98;70.00;98766.56;5068006;28;20053;-70
2022/09/25 05:31:16;;;;;;;9.95;8.73;;;;;;;12.83;70.17;98736.66;5068125;28;20057;-70
2022/09/25 05:33:44;;;;;;;10.60;9.02;;;;;;;12.96;70.16;98765.00;5067811;28;20060;-70
2022/09/25 05:36:11;;;;;;;12.60;9.32;;;;;;;12.21;70.42;98627.00;5067865;28;20053;-71
2022/09/25 05:38:40;;;;;;;11.13;9.93;;;;;;;12.88;70.19;98738.97;5067746;28;20052;-70
2022/09/25 05:41:09;;;;;;;10.85;8.63;;;;;;;13.00;70.14;98769.13;5067419;28;20056;-71
2022/09/25 05:43:40;;;;;;;11.95;10.07;;;;;;;12.99;70.05;98773.59;5067814;28;20060;-69
2022/09/25 05:46:09;;;;;;;10.75;9.65;;;;;;;12.99;70.09;98783.38;5068164;28;20053;-69
2022/09/25 05:48:37;;;;;;;11.77;9.40;;;;;;;12.94;70.25;98782.88;5067185;28;20064;-69
2022/09/25 05:51:05;;;;;;;11.82;10.02;;;;;;;12.94;70.28;98782.88;5067560;28;20331;-69
2022/09/25 05:53:33;;;;;;;12.65;9.80;;;;;;;12.94;70.40;98781.06;5067456;28;20060;-69
2022/09/25 05:56:02;;;;;;;11.32;8.68;;;;;;;12.73;70.03;98750.72;5067392;28;20057;-69
2022/09/25 05:58:32;;;;;;;12.25;10.02;;;;;;;13.00;70.24;98791.25;5067498;28;20064;-69
2022/09/25 06:01:00;;;;;;;11.18;9.98;;;;;;;12.98;70.62;98784.34;5067366;28;20321;-69
2022/09/25 06:03:30;;;;;;;11.77;10.57;;;;;;;12.88;70.59;98762.91;5066841;28;20076;-69
2022/09/25 06:05:57;;;;;;;11.77;10.15;;;;;;;12.94;70.93;98775.75;5067180;28;20052;-69
2022/09/25 06:08:26;;;;;;;11.90;10.70;;;;;;;12.93;70.99;98767.88;5066969;28;20057;-69
2022/09/25 06:10:54;;;;;;;9.55;8.45;;;;;;;12.86;70.49;98742.69;5067034;28;20309;-69
2022/09/25 06:13:24;;;;;;;10.70;8.63;;;;;;;12.82;70.58;98734.09;5066217;28;20056;-69
2022/09/25 06:15:52;;;;;;;9.63;8.63;;;;;;;13.03;70.39;98768.88;5067111;28;20053;-69
2022/09/25 06:18:21;;;;;;;11.55;9.82;;;;;;;12.75;70.70;98724.88;5066764;28;20057;-69
2022/09/25 06:20:50;;;;;;;13.85;12.13;;;;;;;13.06;70.45;98752.69;5066950;28;20060;-69
2022/09/25 06:23:18;;;;;;;12.85;10.75;;;;;;;13.08;70.28;98758.75;5066556;28;20056;-69
2022/09/25 06:25:46;;;;;;;11.27;10.15;;;;;;;12.99;70.13;98741.66;5066029;28;20079;-69
2022/09/25 06:28:13;;;;;;;10.98;9.27;;;;;;;13.11;70.45;98764.69;5066181;28;20057;-69
2022/09/25 06:30:40;;;;;;;9.70;8.68;;;;;;;13.11;70.24;98756.72;5066831;28;20126;-69
2022/09/25 06:33:11;;;;;;;12.48;9.98;;;;;;;13.13;70.50;98759.25;5066600;28;20057;-69
2022/09/25 06:35:41;;;;;;;10.73;9.52;;;;;;;12.74;70.37;98712.53;5066765;28;20060;-69
2022/09/25 06:38:11;;;;;;;10.63;9.52;;;;;;;12.54;69.93;98668.84;5066727;28;20056;-69
2022/09/25 06:40:39;;;;;;;9.82;8.80;;;;;;;13.09;70.55;98763.97;5066796;28;20064;-69
2022/09/25 06:43:09;;;;;;;11.40;9.20;;;;;;;13.08;70.26;98764.06;5066634;28;20064;-70
2022/09/25 06:45:38;;;;;;;9.48;8.45;;;;;;;13.12;70.08;98773.53;5066466;28;20060;-69
2022/09/25 06:48:07;;;;;;;10.68;9.57;;;;;;;13.18;70.39;98777.53;5066446;28;20088;-70
2022/09/25 06:50:40;;;;;;;10.75;9.30;;;;;;;13.19;69.96;98768.59;5066135;28;20059;-69
2022/09/25 06:53:08;;;;;;;11.93;10.73;;;;;;;13.04;70.19;98744.84;5066374;28;20068;-69
2022/09/25 06:55:37;;;;;;;11.70;9.70;;;;;;;13.08;70.15;98738.31;5066343;28;20052;-69
2022/09/25 06:58:06;;;;;;;11.80;9.32;;;;;;;13.18;70.35;98757.09;5066280;28;20052;-69
2022/09/25 07:00:33;;;;;;;12.10;10.40;;;;;;;13.16;70.04;98743.91;5066213;28;20057;-69
2022/09/25 07:05:47;;;;;;;11.60;10.32;;;;;;;10.98;70.24;98370.59;5065932;28;20049;-69
2022/09/25 07:08:16;;;;;;;10.52;9.48;;;;;;;13.18;69.84;98733.16;5066067;28;20309;-69
2022/09/25 07:10:49;;;;;;;12.00;9.85;;;;;;;13.21;69.43;98734.75;5065872;28;20057;-69
2022/09/25 07:13:17;;;;;;;11.88;10.25;;;;;;;13.26;69.76;98741.41;5065905;28;20057;-69
2022/09/25 07:15:51;;;;;;;11.10;9.80;;;;;;;13.30;68.81;98740.22;5065757;28;20317;-69
2022/09/25 07:18:19;;;;;;;10.77;9.43;;;;;;;13.29;69.17;98737.66;5065613;28;20329;-69
2022/09/25 07:20:46;;;;;;;11.50;9.32;;;;;;;13.34;68.88;98741.66;5065711;28;20057;-71
2022/09/25 07:23:14;;;;;;;9.90;8.20;;;;;;;13.18;68.79;98709.22;5065608;28;20213;-69
2022/09/25 07:25:41;;;;;;;11.48;9.32;;;;;;;12.66;68.99;98621.88;5065692;28;20053;-69
2022/09/25 07:28:11;;;;;;;11.55;7.90;;;;;;;13.45;68.50;98743.53;5065766;28;20053;-69
2022/09/25 07:30:39;;;;;;;9.90;8.90;;;;;;;13.43;68.53;98733.00;5065967;28;20048;-69
2022/09/25 07:33:07;;;;;;;11.65;9.30;;;;;;;13.45;68.44;98716.94;5065310;28;20052;-70
2022/09/25 07:35:34;;;;;;;14.45;10.30;;;;;;;13.47;68.27;98713.19;5065359;28;20052;-69
2022/09/25 07:38:02;;;;;;;12.05;10.35;;;;;;;12.35;68.30;98538.28;5065240;28;20082;-69
2022/09/25 07:40:30;;;;;;;11.00;9.90;;;;;;;13.48;68.48;98722.88;5065587;28;20321;-69
2022/09/25 07:42:59;;;;;;;11.18;9.73;;;;;;;13.34;68.02;98706.22;5065182;28;20056;-69
2022/09/25 07:45:29;;;;;;;9.85;8.75;;;;;;;13.53;67.88;98738.47;5081126;28;20060;-70
2022/09/25 07:47:56;;;;;;;9.80;8.63;;;;;;;13.51;68.14;98743.06;5065406;28;20075;-69
2022/09/25 07:50:24;;;;;;;9.77;8.88;;;;;;;13.50;68.15;98740.53;5065494;28;20217;-70
2022/09/25 07:52:51;;;;;;;11.43;8.95;;;;;;;13.54;68.02;98736.66;5065081;28;20057;-70
2022/09/25 07:55:18;;;;;;;11.18;9.88;;;;;;;13.53;68.20;98738.47;5065287;28;20060;-70
2022/09/25 07:57:47;;;;;;;13.10;9.75;;;;;;;13.44;68.05;98731.19;5065108;28;20330;-70
2022/09/25 08:00:15;;;;;;;9.93;8.95;;;;;;;12.51;67.95;98571.56;5065566;28;20053;-69
2022/09/25 08:02:44;;;;;;;11.00;9.38;;;;;;;13.59;67.86;98755.81;5065041;28;20057;-71
2022/09/25 08:05:11;;;;;;;10.23;9.13;;;;;;;13.60;67.88;98769.00;5065272;28;20057;-70
2022/09/25 08:07:39;;;;;;;10.23;8.73;;;;;;;12.98;67.61;98668.16;5065088;28;20068;-69
2022/09/25 08:10:07;;;;;;;10.35;9.25;;;;;;;13.58;67.82;98762.09;5064807;28;20053;-70
2022/09/25 08:12:35;;;;;;;10.45;8.77;;;;;;;13.53;67.79;98758.94;5065113;28;20057;-69
2022/09/25 08:15:03;;;;;;;11.50;9.38;;;;;;;13.54;67.75;98756.16;5064990;28;20208;-70
2022/09/25 08:17:30;;;;;;;11.02;8.48;;;;;;;11.51;67.68;98419.72;5065071;28;20037;-69
2022/09/25 08:19:59;;;;;;;11.65;8.40;;;;;;;13.57;67.29;98755.91;5064947;28;20068;-70
2022/09/25 08:22:27;;;;;;;11.88;9.43;;;;;;;13.55;67.99;98754.34;5064967;28;20213;-69
2022/09/25 08:24:54;;;;;;;13.05;9.68;;;;;;;13.46;68.08;98739.91;5064828;28;20056;-69
2022/09/25 08:27:22;;;;;;;11.10;10.00;;;;;;;13.61;67.56;98757.38;5064918;28;20068;-69
2022/09/25 08:29:49;;;;;;;11.25;10.10;;;;;;;13.64;67.50;98762.47;5065009;28;20270;-70
2022/09/25 08:32:16;;;;;;;10.27;9.20;;;;;;;13.60;67.24;98754.84;5064787;28;20076;-70
2022/09/25 08:34:43;;;;;;;10.73;9.65;;;;;;;13.70;67.30;98763.81;5064921;28;20049;-69
2022/09/25 08:37:12;;;;;;;11.95;10.35;;;;;;;13.74;67.48;98762.59;5064854;28;20313;-69
2022/09/25 08:39:40;;;;;;;12.27;11.07;;;;;;;13.70;67.76;98758.47;5064644;28;20056;-69
2022/09/25 08:42:18;;;;;;;11.32;10.13;;;;;;;13.71;67.33;98749.53;5064749;28;20061;-70
2022/09/25 08:49:00;;;;;;;10.55;9.55;;;;;;;13.44;67.45;98707.25;5064373;28;20267;-70
2022/09/25 08:50:25;;;;;;;13.27;10.68;;;;;;;13.66;68.06;98765.00;5067022;28;20041;-70
2022/09/25 08:53:03;;;;;;;12.30;11.00;;;;;;;13.68;68.17;98774.56;5068251;28;20053;-69
2022/09/25 08:58:22;;;;;;;15.05;11.77;;;;;;;13.69;68.47;98770.94;5068002;28;20052;-71
2022/09/25 09:00:53;;;;;;;12.15;10.85;;;;;;;13.10;68.48;98667.22;5068375;28;20052;-71
2022/09/25 09:03:24;;;;;;;13.10;10.57;;;;;;;13.43;68.79;98722.38;5067143;28;20341;-70
2022/09/25 09:05:57;;;;;;;11.68;10.48;;;;;;;13.75;68.69;98782.94;5068071;28;20174;-71
2022/09/25 09:08:29;;;;;;;12.85;11.30;;;;;;;13.76;69.02;98769.50;5067802;28;20057;-70
2022/09/25 09:11:01;;;;;;;11.43;10.20;;;;;;;13.78;68.55;98758.75;5068089;28;20064;-70
2022/09/25 09:13:35;;;;;;;11.43;9.65;;;;;;;13.77;68.57;98757.03;5068135;28;20064;-70
2022/09/25 09:16:06;;;;;;;11.82;10.68;;;;;;;13.75;68.62;98756.31;5067895;28;20049;-70
2022/09/25 09:18:38;;;;;;;11.43;10.23;;;;;;;13.75;68.46;98757.16;5067830;28;20056;-71
2022/09/25 09:21:14;;;;;;;12.90;11.57;;;;;;;13.74;69.03;98744.81;5067237;28;20057;-70
2022/09/25 09:23:52;;;;;;;11.55;10.38;;;;;;;13.55;68.96;98709.94;5067431;28;20056;-71
2022/09/25 09:26:24;;;;;;;10.88;9.80;;;;;;;13.67;69.00;98738.25;5067477;28;20063;-71
2022/09/25 09:29:12;;;;;;;12.60;11.30;;;;;;;13.73;68.70;98739.59;5068008;28;20057;-70
2022/09/25 09:31:48;;;;;;;13.88;11.65;;;;;;;13.67;69.05;98740.94;5067368;28;20057;-71
2022/09/25 09:34:31;;;;;;;13.57;11.73;;;;;;;13.22;69.38;98683.22;5066542;28;20057;-72
2022/09/25 09:37:06;;;;;;;13.27;11.98;;;;;;;13.61;69.63;98743.22;5067794;28;20064;-72
2022/09/25 09:39:43;;;;;;;13.82;11.93;;;;;;;13.66;69.25;98733.06;5067629;28;20101;-72
2022/09/25 09:42:31;;;;;;;13.52;11.95;;;;;;;13.64;69.37;98735.84;5067437;28;20064;-72
2022/09/25 09:45:09;;;;;;;11.98;10.77;;;;;;;13.67;69.51;98737.41;5067336;28;20052;-71
2022/09/25 09:47:43;;;;;;;13.40;12.10;;;;;;;13.60;68.94;98741.53;5067124;28;20068;-70
2022/09/25 09:50:24;;;;;;;12.20;10.90;;;;;;;13.66;69.07;98738.38;5067253;28;20056;-70
2022/09/25 09:52:58;;;;;;;13.27;11.27;;;;;;;13.68;69.07;98734.63;5067084;28;20111;-73
2022/09/25 09:55:35;;;;;;;12.10;10.90;;;;;;;13.68;68.98;98736.44;5067210;28;20053;-72
2022/09/25 09:58:07;;;;;;;15.15;12.38;;;;;;;13.64;68.85;98721.69;5067283;28;20040;-72
2022/09/25 10:00:36;;;;;;;12.05;10.85;;;;;;;13.72;69.22;98733.44;5066819;28;20124;-72
2022/09/25 10:03:09;;;;;;;13.45;12.15;;;;;;;13.76;69.06;98728.72;5065509;28;20217;-72
2022/09/25 10:05:41;;;;;;;19.30;11.93;;;;;;;13.49;68.80;98691.78;5066502;28;20098;-72
2022/09/25 10:08:09;;;;;;;12.98;11.27;;;;;;;13.76;69.01;98732.22;5066952;28;20063;-72
2022/09/25 10:10:42;;;;;;;12.80;11.48;;;;;;;13.78;68.77;98740.09;5066926;28;20041;-71
2022/09/25 10:13:16;;;;;;;14.93;12.75;;;;;;;13.80;69.07;98735.50;5066677;28;20095;-71
2022/09/25 10:15:50;;;;;;;12.75;11.32;;;;;;;13.67;68.96;98716.13;5065365;28;20053;-70
2022/09/25 10:18:20;;;;;;;15.18;13.57;;;;;;;13.78;68.87;98740.09;5066228;28;20056;-70
2022/09/25 10:20:54;;;;;;;13.25;11.57;;;;;;;13.64;68.65;98714.53;5066297;28;20060;-70
2022/09/25 10:23:49;;;;;;;14.05;12.43;;;;;;;13.79;68.75;98734.66;5066680;28;20170;-70
2022/09/25 10:26:26;;;;;;;11.93;10.82;;;;;;;13.78;68.91;98732.09;5064069;28;20220;-70
2022/09/25 10:28:56;;;;;;;11.48;10.23;;;;;;;13.82;69.05;98736.22;5065776;28;20297;-70
2022/09/25 10:31:26;;;;;;;15.88;12.13;;;;;;;13.45;68.62;98671.69;5065767;28;20059;-70
2022/09/25 10:34:03;;;;;;;12.63;11.32;;;;;;;13.85;68.58;98721.81;5066001;28;20056;-70
2022/09/25 10:36:37;;;;;;;14.25;12.15;;;;;;;13.85;68.66;98722.66;5065397;28;20071;-70
2022/09/25 10:39:23;;;;;;;14.15;10.32;;;;;;;13.82;68.58;98716.72;5065367;28;20052;-71
2022/09/25 10:41:52;;;;;;;12.00;10.70;;;;;;;13.78;68.59;98724.97;5065563;28;20057;-70
2022/09/25 10:44:30;;;;;;;11.57;10.23;;;;;;;13.79;68.32;98715.16;5065981;28;20213;-70
2022/09/25 10:52:48;;;;;;;10.38;9.32;;;;;;;12.91;68.35;98563.22;5066050;28;19916;-70
2022/09/25 10:55:24;;;;;;;13.27;10.50;;;;;;;13.78;68.48;98700.16;5065272;28;20064;-71
2022/09/25 10:58:20;;;;;;;12.55;9.50;;;;;;;13.82;68.48;98692.75;5065730;28;20053;-70
2022/09/25 11:00:55;;;;;;;10.70;9.40;;;;;;;13.84;68.30;98696.16;5065843;28;20213;-70
2022/09/25 11:03:26;;;;;;;11.73;10.52;;;;;;;13.77;68.03;98693.13;5065692;28;20049;-72
2022/09/25 11:05:58;;;;;;;13.45;10.70;;;;;;;13.00;68.07;98551.84;5066201;28;20201;-73
2022/09/25 11:08:29;;;;;;;11.82;10.65;;;;;;;13.49;67.98;98641.19;5065717;28;20053;-73
2022/09/25 11:10:58;;;;;;;12.70;10.35;;;;;;;13.58;68.01;98668.91;5065734;28;20072;-70
2022/09/25 11:13:35;;;;;;;20.55;12.82;;;;;;;13.71;68.13;98673.16;5064818;28;20049;-70
2022/09/25 11:16:08;;;;;;;11.90;10.70;;;;;;;13.58;68.35;98661.78;5065884;28;20052;-70
2022/09/25 11:18:38;;;;;;;11.73;10.18;;;;;;;13.69;68.48;98667.09;5065364;28;20057;-70
2022/09/25 11:21:16;;;;;;;11.95;10.80;;;;;;;13.41;68.17;98625.78;5065800;28;20217;-69
2022/09/25 11:24:03;;;;;;;12.02;10.80;;;;;;;13.65;68.14;98667.47;5065765;28;20064;-70
2022/09/25 11:26:36;;;;;;;13.10;11.70;;;;;;;13.64;68.21;98671.94;5065533;28;20056;-70
2022/09/25 11:29:11;;;;;;;13.50;12.10;;;;;;;13.68;68.49;98678.72;5065741;28;20332;-70
2022/09/25 11:31:43;;;;;;;12.77;11.50;;;;;;;13.64;68.20;98681.75;5065501;28;20067;-70
2022/09/25 11:34:19;;;;;;;12.52;11.20;;;;;;;13.71;68.16;98682.94;5065179;28;20070;-71
2022/09/25 11:36:51;;;;;;;12.90;11.32;;;;;;;13.17;68.26;98587.78;5065154;28;20147;-70
2022/09/25 11:42:17;;;;;;;13.90;10.38;;;;;;;13.73;68.00;98681.88;5065425;28;20037;-70
2022/09/25 11:44:56;;;;;;;12.68;10.73;;;;;;;13.73;67.62;98692.53;5065419;28;20057;-70
2022/09/25 11:47:28;;;;;;;13.15;10.57;;;;;;;11.19;67.64;98261.13;5064865;28;20064;-70
2022/09/25 11:49:58;;;;;;;11.88;10.63;;;;;;;13.77;67.78;98680.66;5064901;28;20057;-70
2022/09/25 11:52:39;;;;;;;11.93;10.65;;;;;;;13.82;67.84;98674.13;5065245;28;20053;-70
2022/09/25 11:55:54;;;;;;;12.35;11.15;;;;;;;13.71;67.87;98672.31;5065232;28;20053;-70
2022/09/25 11:58:36;;;;;;;11.55;10.40;;;;;;;13.71;68.09;98667.81;5033758;28;20213;-71
2022/09/25 12:01:17;;;;;;;12.38;11.07;;;;;;;13.74;67.86;98670.25;5064978;28;20229;-71
2022/09/25 12:03:58;;;;;;;10.63;9.45;;;;;;;13.80;67.71;98667.09;5064473;28;20320;-71
2022/09/25 12:06:48;;;;;;;13.63;10.23;;;;;;;13.83;67.91;98673.16;5064757;28;20064;-70
2022/09/25 12:09:33;;;;;;;16.27;13.60;;;;;;;13.86;67.75;98670.25;5063661;28;20057;-71
2022/09/25 12:12:03;;;;;;;;;;;;;;;13.72;68.67;98664.19;5065445;28;20064;-72
2022/09/25 12:14:40;;;;;;;11.30;9.65;;;;;;;13.82;67.98;98653.66;5064945;28;19917;-70
2022/09/25 12:17:19;;;;;;;12.07;10.30;;;;;;;13.85;67.54;98653.41;5064870;28;20069;-70
2022/09/25 12:19:55;;;;;;;10.93;9.68;;;;;;;13.73;67.96;98628.59;5064807;28;20313;-71
2022/09/25 12:22:39;;;;;;;11.95;10.75;;;;;;;13.86;67.76;98663.09;5064812;28;20340;-71
2022/09/25 12:25:26;;;;;;;11.88;10.65;;;;;;;13.89;67.32;98654.03;5066890;28;20053;-70
2022/09/25 12:28:02;;;;;;;11.55;10.00;;;;;;;13.91;67.82;98652.06;5068937;28;20064;-69
2022/09/25 12:30:34;;;;;;;13.65;10.13;;;;;;;13.93;67.52;98655.47;5069051;28;20064;-69
2022/09/25 12:33:15;;;;;;;11.45;10.27;;;;;;;13.94;67.67;98639.38;5068578;28;20057;-69
2022/09/25 12:35:50;;;;;;;11.82;9.85;;;;;;;13.96;67.49;98634.75;5068769;28;20060;-70
2022/09/25 12:38:36;;;;;;;11.77;10.57;;;;;;;13.97;67.52;98624.94;5069030;28;20049;-69
2022/09/25 12:41:09;;;;;;;11.98;10.40;;;;;;;13.99;67.63;98620.34;5068390;28;20060;-69
2022/09/25 12:43:44;;;;;;;11.15;10.05;;;;;;;14.00;67.69;98619.38;5068304;28;20057;-71
2022/09/25 12:46:18;;;;;;;11.10;9.88;;;;;;;14.01;67.81;98627.25;5068688;28;20064;-69
2022/09/25 12:48:51;;;;;;;11.32;10.15;;;;;;;14.06;67.25;98630.38;5068449;28;20041;-70
2022/09/25 12:51:25;;;;;;;12.03;10.37;;;;;;;14.10;67.18;98628.31;5068608;28;20056;-70
2022/09/25 12:53:57;;;;;;;12.40;9.63;;;;;;;14.09;67.58;98634.63;5068299;28;20052;-70
2022/09/25 12:56:32;;;;;;;10.32;9.00;;;;;;;14.19;67.48;98613.41;5068381;28;20056;-70
2022/09/25 12:59:06;;;;;;;11.88;10.35;;;;;;;14.18;67.34;98609.88;5067989;28;20065;-70
2022/09/25 13:01:44;;;;;;;10.82;9.65;;;;;;;14.24;67.03;98612.06;5068365;28;20232;-70
2022/09/25 13:04:36;;;;;;;10.25;9.15;;;;;;;13.82;66.65;98533.81;5067847;28;20067;-69
2022/09/25 13:07:14;;;;;;;11.80;9.23;;;;;;;14.33;66.93;98613.13;5068149;28;20323;-71
2022/09/25 13:09:43;;;;;;;10.45;8.45;;;;;;;14.31;66.75;98607.91;5067869;28;20056;-72
2022/09/25 13:12:21;;;;;;;9.85;8.82;;;;;;;13.90;66.17;98546.50;5067767;28;20348;-71
2022/09/25 13:14:54;;;;;;;8.82;7.93;;;;;;;14.36;66.82;98599.53;5067654;28;20221;-71
2022/09/25 13:17:23;;;;;;;10.52;7.88;;;;;;;14.37;66.39;98598.56;5067283;28;20100;-71
2022/09/25 13:19:52;;;;;;;9.52;8.57;;;;;;;14.42;66.31;98604.34;5066697;28;20084;-70
2022/09/25 13:22:23;;;;;;;9.90;8.57;;;;;;;14.42;66.26;98602.53;5066977;28;20057;-70
2022/09/25 13:24:55;;;;;;;10.40;8.70;;;;;;;14.45;66.40;98598.78;5067110;28;20057;-70
2022/09/25 13:27:25;;;;;;;9.55;8.50;;;;;;;13.69;66.05;98463.88;5066485;28;20052;-70
2022/09/25 13:29:56;;;;;;;10.85;9.75;;;;;;;13.88;66.16;98505.81;5066425;28;20220;-70
2022/09/25 13:32:27;;;;;;;10.85;9.57;;;;;;;13.93;66.10;98492.97;5067391;28;20217;-69
2022/09/25 13:35:01;;;;;;;11.05;9.95;;;;;;;14.40;65.63;98564.50;5067154;28;20336;-69
2022/09/25 13:37:31;;;;;;;13.30;10.48;;;;;;;13.96;65.74;98525.53;5067353;28;20335;-70
2022/09/25 13:42:46;;;;;;;10.68;9.57;;;;;;;14.24;65.75;98526.78;5067598;28;20104;-70
2022/09/25 13:45:32;;;;;;;10.43;9.43;;;;;;;14.66;65.17;98581.03;5067375;28;20049;-71
2022/09/25 13:48:09;;;;;;;9.30;8.35;;;;;;;14.66;66.06;98583.72;5067189;28;20053;-71
2022/09/25 13:50:41;;;;;;;9.52;8.63;;;;;;;14.70;65.76;98578.97;5067414;28;20064;-71
2022/09/25 13:53:24;;;;;;;10.40;9.40;;;;;;;14.72;65.51;98585.03;5067590;28;20064;-72
2022/09/25 13:56:25;;;;;;;12.70;10.27;;;;;;;14.73;65.76;98576.03;5067427;28;20056;-70
2022/09/25 13:59:37;;;;;;;10.30;9.32;;;;;;;14.71;66.08;98586.00;5066698;28;20053;-70
2022/09/25 14:02:37;;;;;;;9.55;8.55;;;;;;;14.70;66.29;98582.47;5067348;28;20070;-71
2022/09/25 14:05:06;;;;;;;10.27;8.73;;;;;;;14.67;66.79;98579.22;5046645;28;20057;-71
2022/09/25 14:07:35;;;;;;;10.20;8.45;;;;;;;14.69;66.38;98578.13;5046505;28;20112;-71
2022/09/25 14:10:04;;;;;;;10.15;9.25;;;;;;;14.69;66.43;98577.28;5046486;28;20293;-71
2022/09/25 14:12:42;;;;;;;9.85;8.95;;;;;;;14.69;65.82;98574.59;5046639;28;20053;-70
2022/09/25 14:15:28;;;;;;;10.77;9.68;;;;;;;14.57;66.35;98567.56;5046840;28;20053;-71
2022/09/25 14:17:59;;;;;;;11.70;9.82;;;;;;;14.49;67.13;98562.03;5046510;28;20053;-71
2022/09/25 14:20:32;;;;;;;11.73;10.63;;;;;;;14.44;66.90;98567.75;5046135;28;20064;-72
2022/09/25 14:23:05;;;;;;;11.05;10.00;;;;;;;13.78;66.81;98476.44;5046568;28;20053;-70
2022/09/25 14:25:37;;;;;;;11.18;10.13;;;;;;;14.30;66.73;98517.41;5046290;28;20057;-71
2022/09/25 14:28:18;;;;;;;11.23;9.90;;;;;;;14.62;66.34;98557.44;5045865;28;20057;-71
2022/09/25 14:30:51;;;;;;;11.55;10.23;;;;;;;12.23;66.44;98152.22;5046460;28;20068;-71
2022/09/25 14:33:37;;;;;;;11.60;10.50;;;;;;;14.61;66.93;98547.75;5046329;28;20057;-71
2022/09/25 14:36:17;;;;;;;12.05;10.05;;;;;;;14.57;66.84;98549.78;5028895;28;20057;-72
2022/09/25 14:39:07;;;;;;;11.20;9.00;;;;;;;14.54;66.81;98543.84;5045648;28;20306;-72
2022/09/25 14:41:50;;;;;;;10.43;9.43;;;;;;;14.55;67.13;98548.19;5045877;28;20053;-72
2022/09/25 14:44:37;;;;;;;11.30;9.80;;;;;;;14.42;67.28;98541.22;5045837;28;20137;-72
2022/09/25 14:47:07;;;;;;;10.98;9.77;;;;;;;14.25;67.52;98507.13;5045348;28;20057;-71
2022/09/25 14:49:39;;;;;;;10.90;9.80;;;;;;;14.08;67.96;98484.56;5046072;28;20045;-70
2022/09/25 14:52:10;;;;;;;11.20;9.95;;;;;;;14.35;68.09;98529.38;5046122;28;20080;-70
2022/09/25 14:54:45;;;;;;;11.68;10.48;;;;;;;14.36;67.92;98524.91;5045325;28;20186;-71
2022/09/25 14:57:16;;;;;;;12.57;11.30;;;;;;;14.38;67.82;98529.13;5046166;28;20064;-70
2022/09/25 14:59:49;;;;;;;9.90;8.90;;;;;;;14.45;67.89;98524.97;5046391;28;20037;-71
2022/09/25 15:02:21;;;;;;;11.23;10.13;;;;;;;14.45;67.89;98532.97;5047300;28;20064;-71
2022/09/25 15:04:49;;;;;;;10.15;9.15;;;;;;;14.45;68.04;98527.63;5066209;28;20240;-71
2022/09/25 15:07:19;;;;;;;11.15;9.82;;;;;;;13.64;67.69;98395.03;5066045;28;20079;-71
2022/09/25 15:09:52;;;;;;;10.65;9.63;;;;;;;13.45;67.96;98373.56;5065627;28;20084;-71
2022/09/25 15:12:23;;;;;;;9.18;8.30;;;;;;;14.12;68.31;98487.81;5066136;28;20312;-71
2022/09/25 15:15:01;;;;;;;9.63;8.63;;;;;;;14.35;68.59;98532.06;5066028;28;20057;-71
2022/09/25 15:17:30;;;;;;;9.25;8.35;;;;;;;14.38;68.25;98536.28;5066013;28;20052;-71
2022/09/25 15:20:00;;;;;;;10.07;8.75;;;;;;;14.25;67.98;98515.13;5065951;28;20064;-71
2022/09/25 15:22:31;;;;;;;11.25;10.07;;;;;;;14.39;68.68;98530.81;5065521;28;20083;-71
2022/09/25 15:25:04;;;;;;;10.38;9.30;;;;;;;14.38;68.39;98531.78;5065477;28;20075;-71
2022/09/25 15:27:31;;;;;;;9.65;8.45;;;;;;;14.35;68.35;98525.88;5065768;28;20063;-71
2022/09/25 15:30:00;;;;;;;9.88;8.48;;;;;;;14.39;68.58;98517.50;5065535;28;20057;-71
2022/09/25 15:32:38;;;;;;;10.30;8.77;;;;;;;13.62;68.44;98399.66;5065471;28;20068;-71
2022/09/25 15:35:18;;;;;;;10.88;8.82;;;;;;;14.07;68.78;98485.53;5065710;28;20171;-71
2022/09/25 15:37:47;;;;;;;10.23;9.20;;;;;;;14.35;68.95;98520.53;5065190;28;20059;-71
2022/09/25 15:40:31;;;;;;;8.95;8.02;;;;;;;14.37;68.81;98516.78;5065086;28;20064;-71
2022/09/25 15:43:00;;;;;;;10.75;8.55;;;;;;;14.38;69.04;98513.13;5064277;28;20057;-71
2022/09/25 15:45:35;;;;;;;9.18;8.27;;;;;;;14.43;68.54;98507.41;5065251;28;20309;-71
2022/09/25 15:48:10;;;;;;;11.88;10.20;;;;;;;14.31;69.42;98541.28;5065155;28;20060;-72
2022/09/25 15:50:37;;;;;;;;;;;;;;;14.08;70.17;98511.22;5065849;28;20312;-71
2022/09/25 15:53:05;;;;;;;9.70;8.60;;;;;;;14.22;69.66;98519.88;5065095;28;19916;-69
2022/09/25 15:55:34;;;;;;;9.70;8.77;;;;;;;14.21;69.59;98515.50;5065244;28;20056;-69
2022/09/25 15:58:10;;;;;;;9.30;8.25;;;;;;;14.20;70.05;98517.34;5064702;28;20335;-71
2022/09/25 16:06:39;;;;;;;13.30;11.95;;;;;;;14.21;70.17;98511.03;5064845;28;20048;-70
2022/09/25 16:09:19;;;;;;;11.50;10.40;;;;;;;14.06;70.47;98491.84;5064016;28;20064;-70
2022/09/25 16:11:48;;;;;;;12.40;11.20;;;;;;;13.56;70.77;98434.75;5064999;28;20333;-70
2022/09/25 16:14:27;;;;;;;12.15;10.95;;;;;;;14.13;70.63;98513.50;5063766;28;20063;-70
2022/09/25 16:16:56;;;;;;;12.38;11.18;;;;;;;14.05;71.19;98521.28;5065237;28;20056;-71
2022/09/25 16:19:31;;;;;;;11.25;10.07;;;;;;;14.15;70.36;98519.53;5065216;28;20048;-71
2022/09/25 16:22:02;;;;;;;11.70;10.50;;;;;;;14.10;70.28;98516.41;5065082;28;20056;-71
2022/09/25 16:24:30;;;;;;;10.23;9.00;;;;;;;13.07;70.15;98342.94;5065068;28;20071;-71